createdAt,value
2018-03-21T00:00:33.233Z,65.90
2018-03-21T00:03:00.508Z,65.60
2018-03-21T00:05:27.745Z,66.00
2018-03-21T00:07:55.725Z,66.40
2018-03-21T00:10:23.024Z,66.40
2018-03-21T00:12:50.285Z,66.10
2018-03-21T00:15:17.314Z,66.00
2018-03-21T00:17:44.478Z,66.20
2018-03-21T00:20:11.773Z,66.70
2018-03-21T00:22:39.097Z,66.80
2018-03-21T00:25:06.957Z,66.90
2018-03-21T00:27:34.753Z,66.70
2018-03-21T00:30:01.954Z,66.70
2018-03-21T00:32:29.818Z,68.00
2018-03-21T00:34:57.750Z,67.00
2018-03-21T00:37:25.621Z,66.70
2018-03-21T00:39:52.875Z,66.70
2018-03-21T00:42:19.961Z,66.90
2018-03-21T00:44:47.129Z,67.00
2018-03-21T00:47:14.178Z,67.30
2018-03-21T00:49:41.432Z,67.50
2018-03-21T00:52:08.688Z,67.90
2018-03-21T00:54:35.724Z,67.60
2018-03-21T00:57:03.033Z,67.00
2018-03-21T00:59:30.095Z,67.70
2018-03-21T01:01:58.156Z,67.00
2018-03-21T01:04:26.172Z,66.40
2018-03-21T01:06:54.190Z,65.90
2018-03-21T01:09:21.308Z,65.80
2018-03-21T01:11:48.400Z,65.70
2018-03-21T01:14:16.193Z,64.80
2018-03-21T01:16:43.696Z,64.70
2018-03-21T01:19:10.686Z,64.40
2018-03-21T01:21:37.716Z,65.60
2018-03-21T01:24:04.728Z,64.60
2018-03-21T01:26:31.672Z,65.10
2018-03-21T01:28:58.660Z,65.40
2018-03-21T01:31:25.741Z,65.60
2018-03-21T01:33:52.742Z,66.30
2018-03-21T01:36:20.758Z,66.20
2018-03-21T01:38:48.568Z,66.20
2018-03-21T01:41:16.649Z,65.90
2018-03-21T01:43:43.961Z,65.60
2018-03-21T01:46:11.261Z,66.60
2018-03-21T01:48:38.324Z,66.60
2018-03-21T01:51:05.293Z,66.60
2018-03-21T01:53:32.328Z,66.70
2018-03-21T01:55:59.324Z,67.00
2018-03-21T01:58:26.281Z,66.90
2018-03-21T02:00:54.056Z,67.00
2018-03-21T02:03:21.137Z,67.00
2018-03-21T02:05:48.105Z,67.60
2018-03-21T02:08:15.060Z,66.70
2018-03-21T02:10:42.024Z,67.90
2018-03-21T02:13:09.111Z,67.70
2018-03-21T02:15:36.092Z,66.50
2018-03-21T02:18:03.169Z,66.80
2018-03-21T02:20:30.896Z,67.20
2018-03-21T02:22:57.900Z,67.10
2018-03-21T02:25:24.893Z,66.90
2018-03-21T02:27:52.136Z,67.20
2018-03-21T02:30:19.188Z,67.20
2018-03-21T02:32:46.182Z,66.90
2018-03-21T02:35:13.904Z,67.00
2018-03-21T02:37:40.869Z,67.00
2018-03-21T02:40:07.909Z,66.10
2018-03-21T02:42:34.985Z,66.80
2018-03-21T02:45:02.776Z,67.50
2018-03-21T02:47:29.781Z,67.50
2018-03-21T02:49:56.758Z,67.80
2018-03-21T02:52:23.791Z,67.50
2018-03-21T02:54:50.838Z,65.90
2018-03-21T02:57:17.853Z,66.50
2018-03-21T02:59:44.863Z,66.60
2018-03-21T03:02:12.225Z,65.70
2018-03-21T03:04:39.268Z,66.80
2018-03-21T03:07:06.272Z,67.40
2018-03-21T03:09:33.553Z,67.00
2018-03-21T03:12:00.584Z,66.80
2018-03-21T03:14:28.328Z,66.60
2018-03-21T03:16:55.525Z,66.60
2018-03-21T03:19:22.545Z,66.20
2018-03-21T03:21:49.696Z,65.30
2018-03-21T03:24:17.460Z,67.80
2018-03-21T03:26:44.488Z,67.70
2018-03-21T03:29:12.287Z,67.50
2018-03-21T03:31:39.313Z,67.30
2018-03-21T03:34:07.061Z,66.90
2018-03-21T03:36:34.037Z,66.90
2018-03-21T03:39:01.775Z,66.20
2018-03-21T03:41:29.587Z,66.60
2018-03-21T03:43:56.556Z,66.40
2018-03-21T03:46:23.538Z,67.20
2018-03-21T03:48:50.505Z,66.90
2018-03-21T03:51:17.501Z,67.10
2018-03-21T03:53:44.472Z,66.70
2018-03-21T03:56:11.472Z,66.40
2018-03-21T03:58:38.429Z,65.80
2018-03-21T04:01:05.400Z,66.60
2018-03-21T04:03:32.390Z,66.80
2018-03-21T04:05:59.357Z,67.30
2018-03-21T04:08:26.328Z,67.10
2018-03-21T04:10:54.060Z,65.70
2018-03-21T04:13:21.097Z,65.80
2018-03-21T04:15:48.112Z,65.80
2018-03-21T04:18:15.849Z,66.70
2018-03-21T04:20:42.857Z,66.60
2018-03-21T04:23:09.944Z,66.30
2018-03-21T04:25:36.897Z,66.30
2018-03-21T04:28:03.893Z,65.70
2018-03-21T04:30:30.889Z,65.20
2018-03-21T04:32:57.965Z,65.20
2018-03-21T04:35:25.688Z,65.40
2018-03-21T04:37:52.676Z,65.30
2018-03-21T04:40:19.655Z,65.20
2018-03-21T04:42:46.677Z,66.20
2018-03-21T04:45:13.681Z,65.70
2018-03-21T04:47:40.716Z,66.80
2018-03-21T04:50:07.748Z,66.70
2018-03-21T04:52:34.749Z,65.90
2018-03-21T04:55:02.557Z,66.70
2018-03-21T04:57:29.581Z,66.60
2018-03-21T04:59:56.572Z,67.20
2018-03-21T05:02:23.612Z,66.20
2018-03-21T05:04:50.639Z,65.50
2018-03-21T05:07:17.632Z,66.20
2018-03-21T05:09:44.616Z,66.80
2018-03-21T05:12:26.556Z,67.20
2018-03-21T05:14:53.561Z,66.70
2018-03-21T05:17:20.532Z,67.20
2018-03-21T05:19:47.512Z,67.90
2018-03-21T05:22:14.637Z,67.40
2018-03-21T05:24:41.620Z,67.20
2018-03-21T05:27:08.620Z,67.70
2018-03-21T05:29:35.634Z,67.40
2018-03-21T05:32:02.672Z,67.40
2018-03-21T05:34:30.384Z,67.20
2018-03-21T05:36:57.393Z,67.20
2018-03-21T05:39:24.616Z,67.20
2018-03-21T05:41:51.794Z,67.00
2018-03-21T05:44:18.837Z,66.90
2018-03-21T05:46:45.905Z,68.40
2018-03-21T05:49:13.319Z,67.70
2018-03-21T05:51:40.613Z,67.50
2018-03-21T05:54:08.501Z,67.50
2018-03-21T05:56:36.475Z,66.90
2018-03-21T05:59:03.820Z,66.90
2018-03-21T06:01:31.950Z,65.60
2018-03-21T06:03:59.124Z,65.40
2018-03-21T06:06:26.237Z,65.00
2018-03-21T06:08:53.261Z,64.40
2018-03-21T06:11:20.642Z,63.70
2018-03-21T06:13:48.577Z,63.90
2018-03-21T06:16:15.874Z,63.90
2018-03-21T06:18:43.854Z,63.30
2018-03-21T06:21:10.899Z,63.30
2018-03-21T06:23:38.778Z,63.40
2018-03-21T06:26:06.726Z,63.30
2018-03-21T06:28:34.782Z,62.30
2018-03-21T06:31:02.143Z,62.30
2018-03-21T06:33:29.237Z,61.90
2018-03-21T06:35:56.488Z,61.60
2018-03-21T06:38:24.498Z,61.30
2018-03-21T06:40:51.806Z,61.20
2018-03-21T06:43:19.774Z,60.30
2018-03-21T06:45:46.912Z,60.20
2018-03-21T06:48:13.982Z,59.80
2018-03-21T06:50:40.997Z,58.90
2018-03-21T06:53:08.057Z,59.20
2018-03-21T06:55:35.056Z,59.30
2018-03-21T06:58:02.933Z,59.50
2018-03-21T07:00:29.947Z,59.80
2018-03-21T07:02:56.952Z,60.00
2018-03-21T07:05:23.987Z,59.10
2018-03-21T07:07:51.782Z,59.30
2018-03-21T07:10:20.751Z,59.30
2018-03-21T07:12:48.883Z,59.20
2018-03-21T07:15:34.584Z,58.90
2018-03-21T07:18:02.522Z,57.40
2018-03-21T07:20:29.569Z,57.20
2018-03-21T07:22:56.852Z,57.30
2018-03-21T07:25:24.049Z,57.10
2018-03-21T07:27:51.205Z,56.90
2018-03-21T07:30:18.489Z,56.80
2018-03-21T07:32:47.748Z,56.60
2018-03-21T07:35:14.939Z,55.60
2018-03-21T07:37:42.170Z,55.00
2018-03-21T07:40:10.049Z,55.30
2018-03-21T07:42:37.945Z,54.80
2018-03-21T07:45:05.948Z,55.00
2018-03-21T07:47:33.106Z,55.00
2018-03-21T07:50:00.903Z,51.80
2018-03-21T07:52:28.182Z,51.70
2018-03-21T07:54:55.478Z,51.20
2018-03-21T07:57:22.682Z,50.10
2018-03-21T07:59:49.833Z,50.40
2018-03-21T08:02:17.032Z,49.70
2018-03-21T08:04:44.928Z,50.20
2018-03-21T08:07:12.148Z,50.20
2018-03-21T08:09:39.317Z,49.80
2018-03-21T08:12:06.653Z,49.20
2018-03-21T08:14:33.686Z,49.40
2018-03-21T08:17:00.693Z,49.40
2018-03-21T08:19:27.953Z,49.30
2018-03-21T08:21:55.195Z,47.70
2018-03-21T08:24:22.397Z,48.30
2018-03-21T08:26:49.617Z,49.00
2018-03-21T08:29:17.594Z,47.30
2018-03-21T08:31:44.792Z,47.20
2018-03-21T08:34:11.853Z,47.20
2018-03-21T08:36:38.844Z,46.80
2018-03-21T08:39:06.141Z,46.30
2018-03-21T08:41:33.234Z,45.60
2018-03-21T08:44:01.094Z,46.30
2018-03-21T08:46:28.284Z,46.30
2018-03-21T08:48:55.320Z,47.00
2018-03-21T08:51:22.312Z,46.50
2018-03-21T08:53:49.383Z,46.10
2018-03-21T08:56:16.543Z,45.00
2018-03-21T08:58:43.685Z,45.00
2018-03-21T09:01:10.986Z,42.10
2018-03-21T09:03:38.224Z,44.20
2018-03-21T09:06:05.325Z,44.60
2018-03-21T09:08:32.510Z,41.80
2018-03-21T09:10:59.573Z,42.70
2018-03-21T09:13:26.571Z,39.80
2018-03-21T09:15:54.615Z,41.00
2018-03-21T09:18:21.742Z,41.00
2018-03-21T09:20:48.975Z,39.70
2018-03-21T09:23:16.193Z,40.00
2018-03-21T09:25:43.548Z,41.10
2018-03-21T09:28:10.601Z,40.30
2018-03-21T09:30:37.862Z,40.10
2018-03-21T09:33:05.105Z,41.90
2018-03-21T09:35:32.253Z,42.90
2018-03-21T09:37:59.341Z,41.20
2018-03-21T09:40:26.620Z,38.70
2018-03-21T09:42:53.753Z,40.30
2018-03-21T09:45:20.834Z,40.40
2018-03-21T09:47:47.892Z,40.50
2018-03-21T09:50:15.060Z,39.20
2018-03-21T09:52:43.061Z,39.00
2018-03-21T09:55:10.301Z,39.00
2018-03-21T09:57:37.353Z,39.00
2018-03-21T10:00:04.726Z,40.30
2018-03-21T10:02:31.956Z,38.60
2018-03-21T10:04:58.994Z,39.40
2018-03-21T10:07:26.252Z,40.60
2018-03-21T10:09:54.250Z,37.50
2018-03-21T10:12:21.311Z,37.50
2018-03-21T10:14:49.402Z,35.40
2018-03-21T10:17:16.533Z,35.40
2018-03-21T10:19:43.731Z,39.10
2018-03-21T10:22:10.876Z,37.70
2018-03-21T10:24:38.043Z,38.40
2018-03-21T10:27:05.092Z,36.70
2018-03-21T10:29:34.330Z,36.50
2018-03-21T10:32:01.561Z,35.90
2018-03-21T10:34:28.683Z,36.90
2018-03-21T10:36:55.882Z,37.30
2018-03-21T10:39:23.126Z,37.00
2018-03-21T10:41:50.181Z,36.70
2018-03-21T10:44:18.230Z,36.60
2018-03-21T10:46:45.513Z,36.60
2018-03-21T10:49:13.312Z,34.30
2018-03-21T10:51:40.680Z,34.30
2018-03-21T10:54:07.875Z,31.20
2018-03-21T10:56:34.957Z,34.00
2018-03-21T10:59:02.126Z,33.60
2018-03-21T11:01:34.981Z,36.20
2018-03-21T11:04:03.001Z,36.20
2018-03-21T11:06:30.226Z,34.70
2018-03-21T11:08:58.137Z,32.90
2018-03-21T11:11:25.314Z,32.90
2018-03-21T11:13:52.425Z,33.30
2018-03-21T11:16:19.724Z,30.30
2018-03-21T11:18:47.689Z,30.10
2018-03-21T11:21:14.852Z,30.10
2018-03-21T11:23:42.069Z,30.00
2018-03-21T11:26:09.251Z,31.90
2018-03-21T11:28:37.052Z,31.00
2018-03-21T11:31:05.085Z,31.00
2018-03-21T11:33:32.887Z,30.20
2018-03-21T11:36:00.045Z,30.30
2018-03-21T11:38:27.249Z,30.80
2018-03-21T11:40:54.373Z,30.10
2018-03-21T11:43:21.475Z,30.80
2018-03-21T11:45:49.332Z,28.10
2018-03-21T11:48:16.353Z,28.00
2018-03-21T11:50:43.376Z,26.60
2018-03-21T11:53:10.569Z,28.50
2018-03-21T11:55:38.396Z,29.60
2018-03-21T11:58:05.398Z,29.60
2018-03-21T12:00:33.393Z,26.90
2018-03-21T12:03:01.377Z,24.30
2018-03-21T12:05:28.402Z,24.30
2018-03-21T12:07:56.429Z,25.90
2018-03-21T12:10:23.650Z,25.90
2018-03-21T12:12:50.873Z,26.10
2018-03-21T12:15:17.925Z,27.10
2018-03-21T12:17:45.154Z,27.40
2018-03-21T12:20:12.354Z,29.40
2018-03-21T12:22:39.399Z,32.20
2018-03-21T12:25:06.703Z,32.40
2018-03-21T12:27:33.925Z,30.90
2018-03-21T12:30:01.824Z,31.10
2018-03-21T12:32:29.114Z,31.10
2018-03-21T12:34:56.158Z,29.80
2018-03-21T12:37:23.337Z,30.20
2018-03-21T12:39:50.623Z,30.40
2018-03-21T12:42:17.700Z,27.90
2018-03-21T12:44:44.931Z,27.50
2018-03-21T12:47:12.018Z,25.70
2018-03-21T12:49:39.032Z,26.30
2018-03-21T12:52:06.976Z,27.10
2018-03-21T12:54:34.891Z,29.00
2018-03-21T12:57:01.962Z,29.00
2018-03-21T12:59:29.129Z,30.10
2018-03-21T13:01:56.200Z,30.60
2018-03-21T13:04:23.409Z,30.20
2018-03-21T13:06:50.630Z,30.90
2018-03-21T13:09:17.757Z,32.10
2018-03-21T13:11:45.564Z,30.00
2018-03-21T13:14:12.845Z,30.00
2018-03-21T13:16:40.833Z,30.70
2018-03-21T13:19:07.832Z,30.70
2018-03-21T13:21:34.985Z,31.20
2018-03-21T13:24:03.112Z,32.70
2018-03-21T13:26:30.209Z,32.30
2018-03-21T13:28:57.208Z,33.20
2018-03-21T13:31:24.436Z,34.30
2018-03-21T13:33:51.451Z,32.70
2018-03-21T13:36:18.604Z,32.80
2018-03-21T13:38:45.833Z,31.80
2018-03-21T13:41:13.003Z,31.70
2018-03-21T13:43:40.249Z,28.60
2018-03-21T13:46:07.376Z,26.80
2018-03-21T13:48:34.677Z,24.20
2018-03-21T13:51:02.602Z,21.50
2018-03-21T13:53:29.823Z,21.50
2018-03-21T13:55:56.968Z,22.50
2018-03-21T13:58:24.224Z,23.90
2018-03-21T14:00:52.198Z,25.50
2018-03-21T14:03:19.320Z,25.50
2018-03-21T14:05:46.514Z,23.30
2018-03-21T14:08:13.611Z,21.50
2018-03-21T14:10:40.656Z,20.30
2018-03-21T14:13:07.712Z,20.00
2018-03-21T14:15:34.885Z,18.30
2018-03-21T14:18:01.941Z,19.00
2018-03-21T14:20:28.953Z,19.90
2018-03-21T14:22:56.063Z,21.30
2018-03-21T14:25:23.026Z,21.20
2018-03-21T14:27:50.967Z,20.20
2018-03-21T14:30:18.013Z,20.20
2018-03-21T14:32:45.006Z,20.00
2018-03-21T14:35:12.193Z,19.70
2018-03-21T14:37:39.173Z,18.80
2018-03-21T14:40:06.925Z,18.90
2018-03-21T14:42:33.945Z,18.90
2018-03-21T14:45:00.920Z,19.00
2018-03-21T14:47:28.642Z,23.30
2018-03-21T14:49:55.649Z,23.20
2018-03-21T14:52:22.660Z,23.30
2018-03-21T14:54:49.665Z,24.10
2018-03-21T14:57:16.685Z,25.20
2018-03-21T14:59:43.685Z,26.00
2018-03-21T15:02:10.693Z,26.60
2018-03-21T15:04:37.704Z,27.30
2018-03-21T15:07:05.440Z,27.50
2018-03-21T15:09:33.217Z,28.80
2018-03-21T15:12:00.224Z,29.20
2018-03-21T15:14:27.280Z,27.80
2018-03-21T15:16:54.277Z,27.10
2018-03-21T15:19:22.036Z,28.60
2018-03-21T15:21:49.045Z,28.50
2018-03-21T15:24:16.043Z,29.20
2018-03-21T15:26:43.072Z,29.80
2018-03-21T15:29:10.800Z,29.40
2018-03-21T15:31:37.849Z,29.30
2018-03-21T15:34:04.900Z,28.90
2018-03-21T15:36:32.629Z,30.70
2018-03-21T15:38:59.644Z,30.30
2018-03-21T15:41:26.688Z,31.10
2018-03-21T15:43:54.404Z,30.50
2018-03-21T15:46:22.132Z,31.00
2018-03-21T15:48:49.123Z,30.60
2018-03-21T15:51:16.207Z,30.00
2018-03-21T15:53:43.149Z,30.80
2018-03-21T15:56:10.913Z,31.50
2018-03-21T15:58:37.945Z,31.20
2018-03-21T16:01:04.979Z,31.40
2018-03-21T16:03:32.148Z,33.00
2018-03-21T16:05:59.266Z,31.90
2018-03-21T16:08:26.256Z,31.00
2018-03-21T16:10:54.039Z,33.30
2018-03-21T16:13:21.089Z,33.20
2018-03-21T16:15:48.729Z,32.50
2018-03-21T16:18:16.972Z,32.50
2018-03-21T16:20:44.048Z,32.50
2018-03-21T16:23:12.098Z,35.10
2018-03-21T16:25:39.128Z,35.10
2018-03-21T16:28:06.134Z,36.40
2018-03-21T16:30:33.901Z,36.10
2018-03-21T16:33:02.040Z,36.90
2018-03-21T16:35:29.380Z,36.80
2018-03-21T16:37:56.451Z,37.00
2018-03-21T16:40:24.328Z,38.20
2018-03-21T16:42:51.401Z,38.30
2018-03-21T16:45:18.446Z,39.00
2018-03-21T16:47:45.461Z,38.20
2018-03-21T16:50:12.451Z,39.20
2018-03-21T16:52:39.705Z,39.20
2018-03-21T16:55:06.862Z,39.10
2018-03-21T16:57:33.921Z,39.10
2018-03-21T17:00:01.892Z,40.10
2018-03-21T17:02:29.166Z,40.00
2018-03-21T17:04:56.457Z,40.20
2018-03-21T17:07:23.734Z,40.20
2018-03-21T17:09:50.815Z,41.20
2018-03-21T17:12:17.933Z,41.50
2018-03-21T17:14:45.006Z,41.80
2018-03-21T17:17:12.945Z,41.30
2018-03-21T17:19:40.045Z,41.20
2018-03-21T17:22:07.165Z,41.70
2018-03-21T17:24:34.195Z,41.60
2018-03-21T17:27:01.269Z,42.20
2018-03-21T17:29:28.530Z,42.40
2018-03-21T17:31:56.582Z,42.30
2018-03-21T17:34:23.713Z,42.50
2018-03-21T17:36:50.863Z,42.30
2018-03-21T17:39:17.994Z,43.20
2018-03-21T17:41:47.252Z,43.20
2018-03-21T17:44:14.341Z,43.20
2018-03-21T17:46:41.406Z,43.20
2018-03-21T17:49:08.587Z,43.70
2018-03-21T17:51:36.576Z,44.10
2018-03-21T17:54:03.705Z,44.00
2018-03-21T17:56:31.906Z,43.50
2018-03-21T17:58:59.010Z,44.30
2018-03-21T18:01:26.085Z,44.00
2018-03-21T18:03:53.305Z,44.00
2018-03-21T18:06:20.428Z,44.60
2018-03-21T18:08:47.561Z,45.10
2018-03-21T18:11:14.754Z,45.40
2018-03-21T18:13:41.945Z,45.10
2018-03-21T18:16:09.101Z,45.80
2018-03-21T18:18:36.373Z,46.00
2018-03-21T18:21:03.417Z,45.40
2018-03-21T18:23:31.355Z,47.10
2018-03-21T18:25:58.492Z,47.00
2018-03-21T18:28:25.693Z,47.20
2018-03-21T18:30:52.893Z,47.60
2018-03-21T18:33:20.845Z,48.60
2018-03-21T18:35:47.997Z,48.50
2018-03-21T18:38:15.322Z,49.10
2018-03-21T18:40:42.466Z,49.50
2018-03-21T18:43:09.740Z,49.60
2018-03-21T18:45:36.912Z,50.50
2018-03-21T18:48:04.142Z,50.30
2018-03-21T18:50:31.374Z,51.20
2018-03-21T18:52:58.434Z,51.30
2018-03-21T18:55:25.477Z,51.60
2018-03-21T18:57:52.508Z,50.80
2018-03-21T19:00:19.541Z,51.20
2018-03-21T19:02:47.361Z,51.30
2018-03-21T19:05:14.376Z,51.20
2018-03-21T19:07:42.121Z,52.20
2018-03-21T19:10:09.419Z,52.10
2018-03-21T19:12:36.686Z,52.60
2018-03-21T19:15:03.773Z,52.80
2018-03-21T19:17:30.991Z,53.10
2018-03-21T19:19:58.219Z,53.10
2018-03-21T19:22:25.977Z,53.30
2018-03-21T19:24:54.677Z,53.30
2018-03-21T19:27:21.700Z,53.20
2018-03-21T19:29:48.702Z,53.10
2018-03-21T19:32:16.741Z,53.40
2018-03-21T19:34:43.932Z,53.20
2018-03-21T19:37:10.907Z,53.80
2018-03-21T19:39:37.945Z,53.70
2018-03-21T19:42:05.802Z,54.10
2018-03-21T19:44:32.809Z,54.10
2018-03-21T19:47:01.029Z,53.70
2018-03-21T19:49:28.487Z,53.60
2018-03-21T19:51:55.620Z,53.50
2018-03-21T19:54:23.591Z,52.30
2018-03-21T19:56:50.829Z,52.10
2018-03-21T19:59:17.924Z,51.90
2018-03-21T20:01:45.492Z,52.50
2018-03-21T20:04:13.583Z,52.40
2018-03-21T20:06:41.029Z,52.70
2018-03-21T20:09:08.845Z,53.60
2018-03-21T20:11:36.556Z,52.50
2018-03-21T20:14:04.602Z,52.90
2018-03-21T20:16:32.017Z,52.80
2018-03-21T20:18:59.229Z,53.50
2018-03-21T20:21:26.321Z,53.70
2018-03-21T20:23:54.046Z,53.20
2018-03-21T20:26:22.142Z,53.60
2018-03-21T20:28:49.454Z,53.60
2018-03-21T20:31:16.751Z,53.70
2018-03-21T20:33:43.898Z,53.80
2018-03-21T20:36:11.443Z,53.70
2018-03-21T20:38:38.761Z,53.70
2018-03-21T20:41:06.074Z,54.50
2018-03-21T20:43:33.464Z,54.30
2018-03-21T20:46:00.521Z,54.30
2018-03-21T20:48:28.596Z,54.40
2018-03-21T20:50:55.829Z,54.30
2018-03-21T20:53:24.478Z,54.30
2018-03-21T20:55:51.585Z,54.30
2018-03-21T20:58:18.649Z,54.70
2018-03-21T21:00:45.697Z,55.40
2018-03-21T21:03:12.914Z,55.60
2018-03-21T21:05:40.705Z,55.60
2018-03-21T21:08:07.730Z,55.60
2018-03-21T21:10:34.718Z,55.70
2018-03-21T21:13:01.945Z,55.80
2018-03-21T21:15:29.148Z,55.50
2018-03-21T21:17:58.534Z,55.30
2018-03-21T21:20:25.917Z,55.60
2018-03-21T21:22:53.042Z,55.30
2018-03-21T21:25:20.326Z,55.60
2018-03-21T21:27:47.441Z,55.30
2018-03-21T21:30:14.585Z,55.10
2018-03-21T21:32:41.604Z,55.20
2018-03-21T21:35:09.317Z,55.00
2018-03-21T21:37:37.296Z,54.90
2018-03-21T21:40:04.372Z,55.10
2018-03-21T21:42:31.476Z,55.10
2018-03-21T21:44:58.538Z,55.30
2018-03-21T21:47:25.777Z,54.80
2018-03-21T21:49:52.886Z,55.10
2018-03-21T21:52:19.939Z,55.20
2018-03-21T21:54:46.955Z,55.00
2018-03-21T21:57:13.965Z,54.70
2018-03-21T21:59:41.290Z,55.10
2018-03-21T22:02:08.376Z,55.40
2018-03-21T22:04:35.437Z,55.40
2018-03-21T22:07:02.478Z,55.70
2018-03-21T22:09:29.467Z,56.10
2018-03-21T22:11:56.523Z,56.10
2018-03-21T22:14:23.800Z,56.00
2018-03-21T22:16:50.872Z,56.40
2018-03-21T22:19:17.876Z,56.30
2018-03-21T22:21:44.924Z,56.80
2018-03-21T22:24:11.926Z,56.90
2018-03-21T22:26:38.978Z,57.10
2018-03-21T22:29:06.085Z,56.90
2018-03-21T22:31:33.825Z,57.60
2018-03-21T22:34:01.547Z,57.70
2018-03-21T22:36:28.572Z,57.70
2018-03-21T22:38:55.540Z,57.90
2018-03-21T22:41:22.532Z,57.80
2018-03-21T22:43:50.325Z,57.20
2018-03-21T22:46:17.300Z,57.20
2018-03-21T22:48:44.301Z,57.20
2018-03-21T22:51:11.309Z,57.30
2018-03-21T22:53:38.412Z,57.80
2018-03-21T22:56:05.386Z,57.90
2018-03-21T22:58:32.360Z,57.60
2018-03-21T23:00:59.413Z,57.10
2018-03-21T23:03:26.480Z,55.90
2018-03-21T23:05:53.464Z,55.70
2018-03-21T23:08:20.481Z,55.80
2018-03-21T23:10:47.465Z,56.40
2018-03-21T23:13:14.477Z,56.40
2018-03-21T23:15:41.492Z,56.30
2018-03-21T23:18:08.473Z,57.00
2018-03-21T23:20:36.204Z,57.70
2018-03-21T23:23:03.261Z,57.70
2018-03-21T23:25:30.981Z,58.20
2018-03-21T23:27:57.957Z,58.10
2018-03-21T23:30:25.676Z,58.60
2018-03-21T23:32:53.421Z,58.50
2018-03-21T23:35:21.145Z,58.50
2018-03-21T23:37:48.157Z,58.40
2018-03-21T23:40:15.141Z,58.80
2018-03-21T23:42:42.118Z,59.00
2018-03-21T23:45:09.137Z,59.00
2018-03-21T23:47:36.103Z,59.30
2018-03-21T23:50:03.133Z,59.60
2018-03-21T23:52:30.956Z,58.10
2018-03-21T23:54:57.958Z,58.00
2018-03-21T23:57:25.759Z,58.30
2018-03-21T23:59:52.731Z,58.20
